Time;durP1;ratioP1;P1;durP2;ratioP2;P2;SDS_P1;SDS_P2;PMS_P1;PMS_P2;Temp;Humidity;BMP_temperature;BMP_pressure;BME280_temperature;BME280_humidity;BME280_pressure;Samples;Min_cycle;Max_cycle;Signal;HPM_P1;HPM_P2
2022/09/09 00:01:50;;;;;;;0.80;0.80;;;14.50;99.90;;;;;;5038396;28;20093;-82
2022/09/09 00:04:28;;;;;;;0.80;0.80;;;14.90;99.90;;;;;;5055223;28;20052;-74
2022/09/09 00:07:08;;;;;;;1.33;1.00;;;14.90;99.90;;;;;;5054621;28;20040;-73
2022/09/09 00:09:49;;;;;;;1.10;1.00;;;14.40;99.90;;;;;;5055200;28;20041;-74
2022/09/09 00:12:23;;;;;;;0.80;0.70;;;14.80;99.90;;;;;;5054973;28;20036;-73
2022/09/09 00:15:12;;;;;;;1.80;1.20;;;14.80;99.90;;;;;;5054462;28;20431;-74
2022/09/09 00:17:41;;;;;;;1.38;1.20;;;14.20;99.90;;;;;;5054577;28;20036;-74
2022/09/09 00:20:16;;;;;;;1.45;1.13;;;14.60;99.90;;;;;;5053828;28;20076;-74
2022/09/09 00:22:53;;;;;;;1.88;1.30;;;14.30;99.90;;;;;;5054336;28;20051;-74
2022/09/09 00:25:34;;;;;;;1.33;1.05;;;14.70;99.90;;;;;;5072442;28;20147;-74
2022/09/09 00:28:00;;;;;;;1.13;0.90;;;14.50;99.90;;;;;;5038101;28;20033;-74
2022/09/09 00:30:31;;;;;;;1.25;0.95;;;14.60;99.90;;;;;;5037983;28;20395;-74
2022/09/09 00:33:04;;;;;;;1.30;1.00;;;14.40;99.90;;;;;;5054274;28;20484;-74
2022/09/09 00:35:32;;;;;;;1.27;1.17;;;14.30;99.90;;;;;;5054437;28;20067;-74
2022/09/09 00:38:03;;;;;;;2.00;1.00;;;14.40;99.90;;;;;;5054222;28;20044;-74
2022/09/09 00:40:41;;;;;;;1.00;0.90;;;13.90;99.90;;;;;;5054238;28;20064;-74
2022/09/09 00:43:30;;;;;;;1.20;1.10;;;14.00;99.90;;;;;;5054207;28;20484;-75
2022/09/09 00:46:02;;;;;;;1.10;1.00;;;13.90;99.90;;;;;;5053152;28;20079;-74
2022/09/09 00:48:43;;;;;;;1.20;1.10;;;14.00;99.90;;;;;;5054297;28;20040;-74
2022/09/09 00:51:42;;;;;;;1.02;0.93;;;14.00;99.90;;;;;;5053773;28;20460;-74
2022/09/09 00:54:45;;;;;;;1.42;1.20;;;14.50;99.90;;;;;;5053891;28;20605;-83
2022/09/09 00:57:31;;;;;;;1.30;1.13;;;13.80;99.90;;;;;;5053868;28;20048;-84
2022/09/09 01:00:21;;;;;;;1.38;1.20;;;14.40;99.90;;;;;;5053913;28;20044;-84
2022/09/09 01:03:25;;;;;;;1.10;1.00;;;14.40;99.90;;;;;;5054237;28;20090;-85
2022/09/09 01:05:59;;;;;;;0.80;0.80;;;14.30;99.90;;;;;;5053888;28;20082;-83
2022/09/09 01:08:33;;;;;;;1.10;1.00;;;14.30;99.90;;;;;;5053985;28;20384;-83
2022/09/09 01:10:59;;;;;;;1.08;0.90;;;13.80;99.90;;;;;;5037429;28;20044;-83
2022/09/09 01:13:33;;;;;;;0.90;0.90;;;14.20;99.90;;;;;;5053456;28;20044;-83
2022/09/09 01:16:05;;;;;;;1.00;0.88;;;13.90;99.90;;;;;;5053700;28;20032;-84
2022/09/09 01:18:53;;;;;;;1.10;0.98;;;14.20;99.90;;;;;;5053584;28;20165;-83
2022/09/09 01:21:34;;;;;;;;;;;14.10;99.90;;;;;;5054127;28;20040;-81
2022/09/09 01:24:21;;;;;;;1.00;0.90;;;14.10;99.90;;;;;;5037058;28;19916;-84
2022/09/09 01:26:51;;;;;;;1.10;1.00;;;13.60;99.90;;;;;;5053445;28;20048;-82
2022/09/09 01:29:20;;;;;;;2.15;1.40;;;14.00;99.90;;;;;;5052451;28;20044;-83
2022/09/09 01:32:23;;;;;;;1.45;1.33;;;13.60;99.90;;;;;;5047442;28;20132;-81
2022/09/09 01:34:51;;;;;;;1.38;1.27;;;13.90;99.90;;;;;;5053276;28;20044;-80
2022/09/09 01:37:16;;;;;;;1.23;1.10;;;13.60;99.90;;;;;;5053767;28;20485;-83
2022/09/09 01:39:44;;;;;;;0.85;0.80;;;14.00;99.90;;;;;;5053262;28;20052;-82
2022/09/09 01:42:14;;;;;;;1.20;1.00;;;13.90;99.90;;;;;;5053138;28;20561;-83
2022/09/09 01:44:40;;;;;;;1.33;0.93;;;14.00;99.90;;;;;;5053117;28;20033;-84
2022/09/09 01:47:06;;;;;;;1.55;1.35;;;13.90;99.90;;;;;;5053226;28;20102;-83
2022/09/09 01:49:32;;;;;;;;;;;13.80;99.90;;;;;;5053579;28;20051;-83
2022/09/09 01:51:59;;;;;;;2.00;1.13;;;14.00;99.90;;;;;;5053074;28;20003;-82
2022/09/09 01:54:29;;;;;;;1.77;1.00;;;13.80;99.90;;;;;;5036907;28;20095;-83
2022/09/09 01:57:21;;;;;;;1.20;1.10;;;13.70;99.90;;;;;;5036388;28;20543;-83
2022/09/09 02:00:10;;;;;;;1.52;1.20;;;13.90;99.90;;;;;;5053168;28;20040;-84
2022/09/09 02:02:55;;;;;;;1.20;1.10;;;13.90;99.90;;;;;;5052888;28;20080;-82
2022/09/09 02:05:27;;;;;;;1.30;1.20;;;13.70;99.90;;;;;;5036144;28;20048;-82
2022/09/09 02:08:03;;;;;;;1.00;0.90;;;13.70;99.90;;;;;;5052825;28;20051;-82
2022/09/09 02:10:49;;;;;;;1.00;0.90;;;13.70;99.90;;;;;;5052884;28;20044;-82
2022/09/09 02:13:18;;;;;;;1.23;1.10;;;13.40;99.90;;;;;;5036153;28;20376;-82
2022/09/09 02:15:54;;;;;;;1.67;1.45;;;13.70;99.90;;;;;;5052691;28;20119;-82
2022/09/09 02:18:29;;;;;;;1.30;1.20;;;13.30;99.90;;;;;;5052707;28;20044;-72
2022/09/09 02:20:57;;;;;;;1.20;1.10;;;13.30;99.90;;;;;;5036163;28;20051;-73
2022/09/09 02:23:23;;;;;;;1.35;1.25;;;14.00;99.90;;;;;;5052655;28;20508;-73
2022/09/09 02:25:51;;;;;;;;;;;14.00;99.90;;;;;;5036546;28;20494;-73
2022/09/09 02:28:21;;;;;;;2.53;1.80;;;13.90;99.90;;;;;;5052669;28;19921;-73
2022/09/09 02:30:53;;;;;;;2.03;1.83;;;13.80;99.90;;;;;;5052777;28;20037;-73
2022/09/09 02:33:19;;;;;;;1.92;1.48;;;13.80;99.90;;;;;;5052803;28;20045;-73
2022/09/09 02:35:46;;;;;;;1.98;1.60;;;14.10;99.90;;;;;;5052334;28;20492;-73
2022/09/09 02:38:14;;;;;;;2.03;1.70;;;13.30;99.90;;;;;;5036147;28;20044;-73
2022/09/09 02:40:40;;;;;;;2.15;1.92;;;13.40;99.90;;;;;;5035745;28;20092;-73
2022/09/09 02:43:06;;;;;;;2.25;1.90;;;13.30;99.90;;;;;;5054819;28;20084;-73
2022/09/09 02:45:42;;;;;;;1.70;1.60;;;13.80;99.90;;;;;;5056445;28;20040;-73
2022/09/09 02:48:16;;;;;;;1.73;1.53;;;13.40;99.90;;;;;;5056455;28;20094;-73
2022/09/09 02:51:12;;;;;;;1.50;1.33;;;13.40;99.90;;;;;;5056216;28;20041;-74
2022/09/09 02:53:54;;;;;;;2.05;1.30;;;13.90;99.90;;;;;;5056421;28;20395;-73
2022/09/09 02:56:25;;;;;;;1.60;1.40;;;13.40;99.90;;;;;;5039799;28;20435;-73
2022/09/09 02:58:51;;;;;;;1.20;1.10;;;14.10;99.90;;;;;;5039512;28;20801;-73
2022/09/09 03:01:17;;;;;;;1.70;1.17;;;13.40;99.90;;;;;;5039476;28;20037;-73
2022/09/09 03:03:44;;;;;;;1.85;1.30;;;13.40;99.90;;;;;;5055914;28;20087;-73
2022/09/09 03:06:11;;;;;;;3.03;1.77;;;13.60;99.90;;;;;;5055825;28;20072;-73
2022/09/09 03:08:37;;;;;;;1.48;1.38;;;13.60;99.90;;;;;;5055826;28;20044;-73
2022/09/09 03:11:03;;;;;;;1.33;1.10;;;13.60;99.90;;;;;;5055728;28;20049;-73
2022/09/09 03:13:29;;;;;;;1.23;1.13;;;13.60;99.90;;;;;;5056000;28;20036;-73
2022/09/09 03:15:55;;;;;;;1.48;1.10;;;14.20;99.90;;;;;;5039422;28;20045;-73
2022/09/09 03:18:20;;;;;;;0.90;0.90;;;13.50;99.90;;;;;;5055971;28;20569;-74
2022/09/09 03:20:50;;;;;;;1.08;0.90;;;14.30;99.90;;;;;;5055727;28;20406;-74
2022/09/09 03:23:16;;;;;;;1.58;1.40;;;13.60;99.90;;;;;;5039108;28;20048;-74
2022/09/09 03:25:50;;;;;;;1.45;1.30;;;14.10;99.90;;;;;;5055737;28;20072;-74
2022/09/09 03:28:15;;;;;;;1.92;1.35;;;13.70;99.90;;;;;;5055654;28;20047;-74
2022/09/09 03:30:41;;;;;;;1.27;1.17;;;13.70;99.90;;;;;;5055584;28;20044;-73
2022/09/09 03:33:07;;;;;;;1.10;0.98;;;13.70;99.90;;;;;;5055564;28;20248;-74
2022/09/09 03:35:32;;;;;;;1.58;0.90;;;13.80;99.90;;;;;;5055371;28;20048;-74
2022/09/09 03:37:58;;;;;;;1.00;0.90;;;13.60;99.90;;;;;;5055349;28;20047;-74
2022/09/09 03:40:24;;;;;;;1.63;1.48;;;13.60;99.90;;;;;;5022067;28;20102;-74
2022/09/09 03:42:49;;;;;;;1.27;1.10;;;13.60;99.90;;;;;;5038921;28;20121;-73
2022/09/09 03:45:16;;;;;;;1.20;1.10;;;13.60;99.90;;;;;;5055184;28;20048;-73
2022/09/09 03:47:42;;;;;;;1.00;0.90;;;14.40;99.90;;;;;;5055155;28;20045;-74
2022/09/09 03:50:10;;;;;;;1.08;0.95;;;13.90;99.90;;;;;;5038555;28;20105;-74
2022/09/09 03:52:37;;;;;;;1.38;1.10;;;14.50;99.90;;;;;;5039105;28;20456;-74
2022/09/09 03:55:04;;;;;;;0.90;0.80;;;13.70;99.90;;;;;;5054082;28;20094;-73
2022/09/09 03:57:30;;;;;;;1.75;0.90;;;14.50;99.90;;;;;;5054912;28;20045;-73
2022/09/09 03:59:55;;;;;;;1.23;0.75;;;13.70;99.90;;;;;;5054905;28;20078;-74
2022/09/09 04:02:21;;;;;;;1.13;0.60;;;13.80;99.90;;;;;;5055113;28;20128;-74
2022/09/09 04:04:47;;;;;;;0.50;0.50;;;14.40;99.90;;;;;;5054823;28;20399;-74
2022/09/09 04:07:13;;;;;;;0.75;0.60;;;13.80;99.90;;;;;;5054622;28;20571;-73
2022/09/09 04:09:39;;;;;;;0.60;0.60;;;14.50;99.90;;;;;;5038221;28;20487;-74
2022/09/09 04:12:06;;;;;;;0.85;0.75;;;14.60;99.90;;;;;;5054682;28;20032;-74
2022/09/09 04:14:32;;;;;;;0.65;0.65;;;14.20;99.90;;;;;;5054657;28;20085;-74
2022/09/09 04:16:59;;;;;;;0.50;0.50;;;13.80;99.90;;;;;;5054553;28;20036;-74
2022/09/09 04:19:25;;;;;;;0.70;0.50;;;13.90;99.90;;;;;;5021836;28;20071;-74
2022/09/09 04:21:51;;;;;;;;;;;13.90;99.90;;;;;;5055290;28;20139;-74
2022/09/09 04:24:17;;;;;;;0.85;0.50;;;14.70;99.90;;;;;;5054666;28;20321;-74
2022/09/09 04:26:43;;;;;;;;;;;14.40;99.90;;;;;;5054967;28;20048;-74
2022/09/09 04:29:08;;;;;;;1.77;0.70;;;14.70;99.90;;;;;;5054564;28;20295;-74
2022/09/09 04:31:35;;;;;;;1.30;0.90;;;14.80;99.90;;;;;;5054370;28;20045;-74
2022/09/09 04:34:04;;;;;;;;;;;14.70;99.90;;;;;;5054622;28;20089;-74
2022/09/09 04:36:31;;;;;;;0.82;0.63;;;14.00;99.90;;;;;;5054193;28;19934;-74
2022/09/09 04:38:57;;;;;;;0.40;0.40;;;14.70;99.90;;;;;;5054101;28;20060;-74
2022/09/09 04:41:23;;;;;;;0.40;0.40;;;14.80;99.90;;;;;;5054435;28;20415;-74
2022/09/09 04:43:49;;;;;;;0.82;0.60;;;14.30;99.90;;;;;;5054492;28;20484;-74
2022/09/09 04:46:17;;;;;;;;;;;14.00;99.90;;;;;;5054331;28;20490;-74
2022/09/09 04:48:43;;;;;;;1.05;0.70;;;14.10;99.90;;;;;;5053875;28;19920;-74
2022/09/09 04:51:13;;;;;;;1.35;0.88;;;14.00;99.90;;;;;;5053807;28;20040;-74
2022/09/09 04:53:40;;;;;;;1.42;0.90;;;14.10;99.90;;;;;;5053803;28;20124;-74
2022/09/09 04:56:09;;;;;;;2.45;1.10;;;14.30;99.90;;;;;;5053682;28;20076;-74
2022/09/09 04:58:36;;;;;;;1.63;1.00;;;14.10;99.90;;;;;;5037118;28;20062;-74
2022/09/09 05:01:12;;;;;;;0.95;0.80;;;14.10;99.90;;;;;;5053784;28;20090;-74
2022/09/09 05:03:37;;;;;;;1.15;0.85;;;14.00;99.90;;;;;;5053551;28;20484;-75
2022/09/09 05:06:09;;;;;;;2.15;1.20;;;14.70;99.90;;;;;;5053118;28;20097;-74
2022/09/09 05:08:40;;;;;;;1.48;1.10;;;14.50;99.90;;;;;;5053964;28;20048;-74
2022/09/09 05:11:26;;;;;;;1.20;1.10;;;14.80;99.90;;;;;;5036872;28;20464;-74
2022/09/09 05:13:53;;;;;;;2.17;1.45;;;14.20;99.90;;;;;;5053535;28;20131;-74
2022/09/09 05:16:20;;;;;;;1.52;1.20;;;14.70;99.90;;;;;;5053582;28;20457;-83
2022/09/09 05:18:46;;;;;;;1.55;1.35;;;14.00;99.90;;;;;;5053535;28;20395;-74
2022/09/09 05:21:13;;;;;;;1.30;1.20;;;14.20;99.90;;;;;;5053382;28;20097;-74
2022/09/09 05:23:39;;;;;;;1.23;0.98;;;14.50;99.90;;;;;;5053517;28;20045;-74
2022/09/09 05:26:07;;;;;;;1.27;0.93;;;14.80;99.90;;;;;;5036542;28;20036;-74
2022/09/09 05:28:35;;;;;;;1.73;1.00;;;14.80;99.90;;;;;;5036708;28;20392;-74
2022/09/09 05:31:04;;;;;;;1.50;1.10;;;14.80;99.90;;;;;;5053855;28;20111;-83
2022/09/09 05:33:31;;;;;;;1.92;1.30;;;14.00;99.90;;;;;;5053236;28;20383;-83
2022/09/09 05:35:58;;;;;;;1.13;1.00;;;14.80;99.90;;;;;;5036759;28;20084;-74
2022/09/09 05:38:25;;;;;;;1.20;0.88;;;14.30;99.90;;;;;;5052836;28;20516;-83
2022/09/09 05:40:52;;;;;;;0.93;0.85;;;14.60;99.90;;;;;;5053464;28;20048;-72
2022/09/09 05:43:19;;;;;;;1.95;1.20;;;14.60;99.90;;;;;;5053311;28;20073;-80
2022/09/09 05:45:47;;;;;;;1.33;1.20;;;14.80;99.90;;;;;;5036478;28;20044;-82
2022/09/09 05:48:14;;;;;;;1.15;1.05;;;14.00;99.90;;;;;;5053423;28;20479;-73
2022/09/09 05:50:41;;;;;;;1.35;1.10;;;14.10;99.90;;;;;;5036233;28;20047;-73
2022/09/09 05:53:06;;;;;;;1.88;1.48;;;14.00;99.90;;;;;;5052924;28;20552;-74
2022/09/09 05:55:32;;;;;;;1.50;1.30;;;14.80;99.90;;;;;;5036646;28;20044;-73
2022/09/09 05:57:58;;;;;;;1.50;0.90;;;14.40;99.90;;;;;;5052921;28;20418;-73
2022/09/09 06:00:23;;;;;;;1.20;1.10;;;14.00;99.90;;;;;;5052794;28;20048;-73
2022/09/09 06:02:53;;;;;;;1.63;1.20;;;14.70;99.90;;;;;;5052774;28;20250;-73
2022/09/09 06:05:19;;;;;;;1.05;0.90;;;14.80;99.90;;;;;;5052886;28;20048;-73
2022/09/09 06:07:45;;;;;;;;;;;14.10;99.90;;;;;;5053111;28;20041;-73
2022/09/09 06:10:13;;;;;;;3.00;1.30;;;14.80;99.90;;;;;;5052679;28;19926;-73
2022/09/09 06:12:39;;;;;;;1.48;1.17;;;14.20;99.90;;;;;;5052716;28;20122;-73
2022/09/09 06:15:05;;;;;;;1.50;1.15;;;14.10;99.90;;;;;;5036244;28;20139;-72
2022/09/09 06:17:31;;;;;;;2.42;1.40;;;14.80;99.90;;;;;;5037331;28;20036;-73
2022/09/09 06:19:57;;;;;;;1.25;1.13;;;14.20;99.90;;;;;;5057053;28;20036;-74
2022/09/09 06:22:23;;;;;;;2.13;1.80;;;14.80;99.90;;;;;;5056684;28;20395;-73
2022/09/09 06:24:48;;;;;;;2.22;1.90;;;14.90;99.90;;;;;;5056730;28;20087;-73
2022/09/09 06:27:14;;;;;;;2.88;2.00;;;14.70;99.90;;;;;;5039995;28;20052;-74
2022/09/09 06:29:40;;;;;;;2.70;2.00;;;14.60;99.90;;;;;;5056653;28;20044;-73
2022/09/09 06:32:08;;;;;;;2.60;1.60;;;14.40;99.90;;;;;;5040114;28;20089;-73
2022/09/09 06:34:35;;;;;;;1.65;1.33;;;14.90;99.90;;;;;;5056540;28;20055;-73
2022/09/09 06:37:01;;;;;;;1.58;1.30;;;14.40;99.90;;;;;;5056232;28;20151;-73
2022/09/09 06:39:26;;;;;;;1.80;1.50;;;14.80;99.90;;;;;;5056158;28;20136;-73
2022/09/09 06:41:53;;;;;;;2.70;2.00;;;15.10;99.90;;;;;;5056671;28;20049;-73
2022/09/09 06:44:19;;;;;;;2.72;2.00;;;15.00;99.90;;;;;;5056157;28;20055;-73
2022/09/09 06:46:47;;;;;;;1.77;1.58;;;15.00;99.90;;;;;;5074113;28;20055;-73
2022/09/09 06:49:13;;;;;;;1.63;1.40;;;14.70;99.90;;;;;;5056276;28;20630;-73
2022/09/09 06:51:42;;;;;;;;;;;14.50;99.90;;;;;;5056740;28;20365;-73
2022/09/09 06:54:09;;;;;;;2.03;1.50;;;15.20;99.90;;;;;;5056266;28;20268;-74
2022/09/09 06:56:37;;;;;;;1.77;1.40;;;15.00;99.90;;;;;;5056138;28;20100;-73
2022/09/09 06:59:08;;;;;;;1.30;1.10;;;14.80;99.90;;;;;;5073828;28;20079;-74
2022/09/09 07:01:37;;;;;;;1.52;1.10;;;14.90;99.90;;;;;;5074342;28;20043;-73
2022/09/09 07:04:04;;;;;;;1.42;1.33;;;14.70;99.90;;;;;;5055873;28;20052;-73
2022/09/09 07:06:32;;;;;;;1.95;1.13;;;14.70;99.90;;;;;;5055629;28;20048;-73
2022/09/09 07:09:00;;;;;;;1.17;0.98;;;15.30;99.90;;;;;;5039568;28;20045;-73
2022/09/09 07:11:37;;;;;;;1.30;1.08;;;14.70;99.90;;;;;;5055735;28;20147;-73
2022/09/09 07:14:02;;;;;;;;;;;15.30;99.90;;;;;;5056436;28;20075;-73
2022/09/09 07:16:29;;;;;;;1.80;1.15;;;15.20;99.90;;;;;;5055776;28;19959;-73
2022/09/09 07:18:58;;;;;;;1.20;0.93;;;15.00;99.90;;;;;;5039524;28;20052;-73
2022/09/09 07:21:26;;;;;;;1.20;1.00;;;15.10;99.90;;;;;;5055593;28;20177;-73
2022/09/09 07:23:52;;;;;;;1.70;1.20;;;15.40;99.90;;;;;;5055577;28;20048;-73
2022/09/09 07:26:21;;;;;;;1.30;0.90;;;15.00;99.90;;;;;;5055347;28;20051;-73
2022/09/09 07:28:48;;;;;;;2.45;1.40;;;14.90;99.90;;;;;;5055389;28;20496;-73
2022/09/09 07:31:16;;;;;;;2.47;1.52;;;15.50;99.90;;;;;;5055313;28;20036;-73
2022/09/09 07:33:43;;;;;;;1.20;1.10;;;15.60;99.90;;;;;;5055434;28;20479;-73
2022/09/09 07:36:12;;;;;;;1.58;1.15;;;15.20;99.90;;;;;;5055548;28;20106;-74
2022/09/09 07:38:45;;;;;;;1.38;1.10;;;15.10;99.90;;;;;;5072973;28;20135;-73
2022/09/09 07:41:17;;;;;;;1.50;1.10;;;15.60;99.90;;;;;;5055200;28;20056;-73
2022/09/09 07:43:46;;;;;;;1.25;1.10;;;15.20;99.90;;;;;;5039057;28;20068;-73
2022/09/09 07:46:14;;;;;;;1.58;1.05;;;15.20;99.90;;;;;;5055041;28;20060;-73
2022/09/09 07:49:00;;;;;;;1.52;1.23;;;15.30;99.90;;;;;;5055179;28;20055;-81
2022/09/09 07:51:30;;;;;;;1.05;0.95;;;15.50;99.90;;;;;;5054750;28;20055;-73
2022/09/09 07:53:58;;;;;;;1.10;0.90;;;15.90;99.90;;;;;;5055255;28;20037;-72
2022/09/09 07:56:26;;;;;;;1.15;0.80;;;15.90;99.90;;;;;;5055106;28;20040;-73
2022/09/09 07:58:53;;;;;;;1.58;1.10;;;16.10;99.90;;;;;;5038701;28;20079;-73
2022/09/09 08:01:25;;;;;;;1.50;1.40;;;15.80;99.90;;;;;;5055147;28;20134;-73
2022/09/09 08:04:06;;;;;;;1.83;1.50;;;16.30;99.90;;;;;;5054818;28;20051;-73
2022/09/09 08:07:09;;;;;;;1.38;1.10;;;16.30;99.90;;;;;;5054415;28;20041;-73
2022/09/09 08:09:35;;;;;;;0.95;0.70;;;16.20;99.90;;;;;;5034548;28;20438;-73
2022/09/09 08:12:01;;;;;;;0.73;0.60;;;16.10;99.90;;;;;;5054576;28;20044;-74
2022/09/09 08:14:27;;;;;;;0.60;0.60;;;16.30;99.90;;;;;;5054677;28;20072;-73
2022/09/09 08:16:57;;;;;;;0.80;0.80;;;16.70;99.90;;;;;;5055018;28;20045;-74
2022/09/09 08:19:23;;;;;;;1.50;1.08;;;16.60;99.90;;;;;;5054779;28;20145;-73
2022/09/09 08:21:49;;;;;;;1.88;1.45;;;17.10;99.90;;;;;;5054598;28;20113;-73
2022/09/09 08:24:15;;;;;;;;;;;16.90;99.90;;;;;;5054706;28;20447;-73
2022/09/09 08:26:47;;;;;;;1.30;1.10;;;17.00;99.90;;;;;;5037742;28;19928;-74
2022/09/09 08:29:16;;;;;;;1.92;1.00;;;17.40;99.90;;;;;;5054136;28;20048;-72
2022/09/09 08:31:43;;;;;;;1.10;1.00;;;17.40;99.90;;;;;;5054188;28;20041;-73
2022/09/09 08:34:09;;;;;;;2.58;1.20;;;17.40;99.90;;;;;;5054217;28;20101;-73
2022/09/09 08:36:36;;;;;;;;;;;17.80;99.90;;;;;;5038140;28;20044;-73
2022/09/09 08:39:03;;;;;;;1.88;1.00;;;17.90;99.90;;;;;;5053821;28;19924;-73
2022/09/09 08:42:03;;;;;;;1.35;0.90;;;17.80;99.90;;;;;;5053443;28;20089;-73
2022/09/09 08:44:37;;;;;;;1.38;1.00;;;17.80;99.90;;;;;;5037641;28;20412;-73
2022/09/09 08:47:42;;;;;;;1.73;1.30;;;17.70;99.90;;;;;;5053994;28;20466;-73
2022/09/09 08:50:41;;;;;;;1.67;1.10;;;17.60;99.90;;;;;;5053811;28;20097;-73
2022/09/09 08:53:20;;;;;;;1.20;1.10;;;17.60;99.90;;;;;;5000474;28;20563;-73
2022/09/09 08:55:58;;;;;;;2.30;1.40;;;17.40;99.90;;;;;;5053847;28;20048;-73
2022/09/09 08:58:30;;;;;;;1.40;1.00;;;17.30;99.90;;;;;;5053755;28;20044;-72
2022/09/09 09:01:33;;;;;;;2.25;1.30;;;17.40;99.90;;;;;;5053670;28;20496;-72
2022/09/09 09:04:23;;;;;;;1.38;1.20;;;17.50;99.90;;;;;;5053718;28;20044;-73
2022/09/09 09:07:14;;;;;;;1.85;0.80;;;17.30;99.90;;;;;;5053416;28;20395;-73
2022/09/09 09:10:00;;;;;;;3.38;0.90;;;17.50;99.90;;;;;;5037183;28;20033;-73
2022/09/09 09:12:29;;;;;;;3.17;1.30;;;17.80;99.90;;;;;;5053455;28;20070;-74
2022/09/09 09:14:57;;;;;;;1.98;1.20;;;17.70;99.90;;;;;;5053349;28;20079;-74
2022/09/09 09:17:26;;;;;;;1.08;0.85;;;17.60;99.90;;;;;;5037014;28;20448;-73
2022/09/09 09:19:51;;;;;;;2.17;1.27;;;17.90;99.90;;;;;;5053588;28;20085;-73
2022/09/09 09:22:23;;;;;;;;;;;17.80;99.90;;;;;;5037228;28;20040;-73
2022/09/09 09:25:17;;;;;;;2.28;1.15;;;17.90;99.90;;;;;;5036955;28;19965;-73
2022/09/09 09:28:00;;;;;;;2.67;1.42;;;18.10;99.90;;;;;;5044115;28;20064;-74
2022/09/09 09:30:31;;;;;;;2.08;1.15;;;18.20;99.90;;;;;;5053503;28;20044;-74
2022/09/09 09:33:10;;;;;;;1.85;1.20;;;18.30;99.90;;;;;;5036638;28;20044;-74
2022/09/09 09:35:36;;;;;;;2.97;1.48;;;18.30;99.90;;;;;;5053188;28;20055;-73
2022/09/09 09:38:02;;;;;;;;;;;18.50;99.90;;;;;;5053456;28;20051;-73
2022/09/09 09:40:28;;;;;;;2.58;1.38;;;18.70;99.90;;;;;;5052895;28;19932;-73
2022/09/09 09:42:55;;;;;;;;;;;18.50;99.90;;;;;;5053336;28;20048;-73
2022/09/09 09:45:29;;;;;;;2.50;1.20;;;18.50;99.90;;;;;;5052669;28;19924;-73
2022/09/09 09:47:59;;;;;;;1.63;1.00;;;18.60;99.90;;;;;;5053005;28;20047;-74
2022/09/09 09:50:25;;;;;;;1.95;0.90;;;18.80;99.90;;;;;;5052967;28;20044;-74
2022/09/09 09:52:58;;;;;;;;;;;18.80;99.90;;;;;;5052755;28;20036;-73
2022/09/09 09:55:25;;;;;;;3.10;1.30;;;18.90;99.90;;;;;;5052799;28;19920;-73
2022/09/09 09:57:51;;;;;;;2.20;1.13;;;18.90;99.90;;;;;;5052781;28;20048;-73
2022/09/09 10:00:19;;;;;;;2.85;1.08;;;18.90;99.90;;;;;;5053076;28;20087;-73
2022/09/09 10:02:46;;;;;;;2.53;0.90;;;19.00;99.90;;;;;;5052755;28;20468;-73
2022/09/09 10:05:17;;;;;;;2.80;1.13;;;18.90;99.90;;;;;;5052676;28;20070;-73
2022/09/09 10:07:45;;;;;;;2.75;1.42;;;18.80;99.90;;;;;;5052710;28;20089;-73
2022/09/09 10:10:38;;;;;;;1.70;1.13;;;18.70;99.90;;;;;;5052664;28;20585;-73
2022/09/09 10:13:17;;;;;;;2.97;1.20;;;18.60;99.90;;;;;;5042709;28;20052;-75
2022/09/09 10:15:56;;;;;;;1.80;1.00;;;18.50;99.90;;;;;;5052626;28;20044;-74
2022/09/09 10:18:40;;;;;;;2.10;0.90;;;18.50;99.90;;;;;;5052783;28;20053;-74
2022/09/09 10:21:34;;;;;;;1.25;0.70;;;18.50;99.90;;;;;;5052851;28;20088;-74
2022/09/09 10:24:18;;;;;;;2.50;0.88;;;18.40;99.90;;;;;;5052450;28;20044;-74
2022/09/09 10:26:58;;;;;;;2.13;0.88;;;18.30;99.90;;;;;;5052623;28;20045;-73
2022/09/09 10:29:37;;;;;;;2.47;0.80;;;18.50;99.90;;;;;;5052572;28;20048;-74
2022/09/09 10:32:06;;;;;;;5.68;1.40;;;18.80;99.90;;;;;;5052396;28;20043;-73
2022/09/09 10:34:57;;;;;;;4.22;1.20;;;19.00;99.90;;;;;;5052410;28;20043;-74
2022/09/09 10:37:38;;;;;;;2.00;1.00;;;19.20;99.90;;;;;;5052504;28;20060;-74
2022/09/09 10:40:26;;;;;;;3.58;1.17;;;19.60;99.90;;;;;;5052402;28;20063;-74
2022/09/09 10:42:58;;;;;;;3.05;1.08;;;19.80;99.90;;;;;;5052398;28;20064;-74
2022/09/09 10:45:34;;;;;;;2.75;1.00;;;20.10;99.90;;;;;;5052428;28;20152;-73
2022/09/09 10:48:26;;;;;;;3.95;1.23;;;20.20;99.90;;;;;;5052260;28;20055;-73
2022/09/09 10:51:05;;;;;;;2.53;0.73;;;20.10;99.90;;;;;;5035767;28;20044;-73
2022/09/09 10:54:04;;;;;;;1.88;0.73;;;20.30;99.90;;;;;;5036484;28;20048;-73
2022/09/09 10:56:30;;;;;;;2.78;0.93;;;20.50;99.90;;;;;;5052445;28;20511;-74
2022/09/09 10:59:05;;;;;;;2.15;0.80;;;20.50;99.90;;;;;;5052259;28;20495;-73
2022/09/09 11:01:39;;;;;;;2.20;0.73;;;20.30;99.90;;;;;;5052429;28;20048;-73
2022/09/09 11:04:13;;;;;;;2.38;0.70;;;20.10;99.90;;;;;;5054122;28;20036;-73
2022/09/09 11:06:48;;;;;;;3.30;0.90;;;20.00;99.90;;;;;;5055636;28;20119;-72
2022/09/09 11:09:18;;;;;;;3.00;0.90;;;20.10;99.90;;;;;;5055885;28;20052;-73
2022/09/09 11:11:55;;;;;;;2.40;0.73;;;20.30;99.90;;;;;;5039452;28;20120;-73
2022/09/09 11:14:40;;;;;;;2.55;0.70;;;20.20;99.90;;;;;;5055831;28;20048;-73
2022/09/09 11:17:33;;;;;;;1.42;0.60;;;20.10;99.90;;;;;;5055855;28;20044;-73
2022/09/09 11:19:59;;;;;;;1.55;0.70;;;20.50;99.90;;;;;;5055527;28;20138;-71
2022/09/09 11:22:29;;;;;;;1.83;0.70;;;20.80;99.90;;;;;;5055456;28;20129;-73
2022/09/09 11:25:21;;;;;;;1.23;0.60;;;21.20;99.90;;;;;;5055567;28;20091;-73
2022/09/09 11:28:19;;;;;;;2.28;0.70;;;21.40;99.90;;;;;;5050816;28;20065;-73
2022/09/09 11:31:12;;;;;;;1.75;0.70;;;21.60;99.90;;;;;;5002457;28;20395;-74
2022/09/09 11:34:12;;;;;;;3.15;0.93;;;21.80;99.90;;;;;;5055692;28;20131;-74
2022/09/09 11:36:56;;;;;;;3.05;0.80;;;22.10;99.90;;;;;;5055530;28;20036;-73
2022/09/09 11:39:45;;;;;;;2.95;0.88;;;22.40;99.90;;;;;;5038361;28;20167;-74
2022/09/09 11:42:13;;;;;;;2.00;0.60;;;22.30;99.90;;;;;;5038845;28;20040;-74
2022/09/09 11:44:41;;;;;;;0.75;0.50;;;22.00;99.90;;;;;;5055301;28;20055;-73
2022/09/09 11:47:30;;;;;;;1.30;0.50;;;22.10;99.90;;;;;;5055303;28;20091;-73
2022/09/09 11:50:07;;;;;;;1.23;0.50;;;22.20;99.90;;;;;;5055043;28;20037;-73
2022/09/09 11:52:38;;;;;;;1.48;0.60;;;21.90;99.90;;;;;;5055498;28;20044;-74
2022/09/09 11:55:26;;;;;;;2.08;0.57;;;21.60;99.90;;;;;;5055047;28;20094;-72
2022/09/09 11:58:15;;;;;;;1.45;0.55;;;21.20;99.90;;;;;;5054993;28;20496;-74
2022/09/09 12:00:44;;;;;;;1.30;0.60;;;21.10;99.90;;;;;;5055014;28;20056;-74
2022/09/09 12:03:39;;;;;;;1.52;0.60;;;21.30;99.90;;;;;;5038362;28;20115;-73
2022/09/09 12:06:19;;;;;;;1.90;0.80;;;21.40;99.90;;;;;;5054606;28;20052;-73
2022/09/09 12:08:50;;;;;;;1.67;0.70;;;21.00;99.90;;;;;;5054881;28;20051;-73
2022/09/09 12:11:28;;;;;;;1.90;0.80;;;20.80;99.90;;;;;;5072664;28;20040;-73
2022/09/09 12:14:00;;;;;;;1.05;0.50;;;20.40;99.90;;;;;;5054646;28;20084;-73
2022/09/09 12:16:38;;;;;;;2.55;0.88;;;20.30;99.90;;;;;;5037407;28;20415;-73
2022/09/09 12:19:15;;;;;;;1.58;0.65;;;20.40;99.90;;;;;;5054636;28;20083;-81
2022/09/09 12:21:59;;;;;;;2.90;0.80;;;20.40;99.90;;;;;;5054771;28;20048;-81
2022/09/09 12:24:48;;;;;;;2.65;0.80;;;20.50;99.90;;;;;;5054667;28;20037;-80
2022/09/09 12:28:01;;;;;;;1.60;0.60;;;20.50;99.90;;;;;;5054515;28;20052;-81
2022/09/09 12:30:54;;;;;;;1.75;0.70;;;20.50;99.90;;;;;;4967733;28;20063;-80
2022/09/09 12:33:21;;;;;;;3.17;0.90;;;20.60;99.90;;;;;;5053398;28;20568;-73
2022/09/09 12:35:55;;;;;;;1.85;0.60;;;20.50;99.90;;;;;;5054208;28;20048;-74
2022/09/09 12:38:42;;;;;;;2.55;0.80;;;20.40;99.90;;;;;;5054354;28;20387;-74
2022/09/09 12:41:19;;;;;;;;;;;20.30;99.90;;;;;;5054846;28;20055;-73
2022/09/09 12:43:45;;;;;;;1.63;0.65;;;20.30;99.90;;;;;;5054356;28;20310;-73
2022/09/09 12:46:15;;;;;;;;;;;20.30;99.90;;;;;;5054644;28;20127;-73
2022/09/09 12:48:45;;;;;;;1.67;0.50;;;20.40;99.90;;;;;;5054005;28;20031;-73
2022/09/09 12:51:38;;;;;;;3.45;1.02;;;20.40;99.90;;;;;;5021360;28;20149;-73
2022/09/09 12:54:04;;;;;;;1.15;0.55;;;20.40;99.90;;;;;;5049901;28;20139;-73
2022/09/09 12:56:33;;;;;;;1.65;0.65;;;20.50;99.90;;;;;;5054169;28;20040;-73
2022/09/09 12:59:00;;;;;;;0.70;0.40;;;20.90;99.90;;;;;;5037397;28;20056;-74
2022/09/09 13:01:29;;;;;;;2.92;0.82;;;21.30;99.90;;;;;;5053608;28;20044;-73
2022/09/09 13:03:56;;;;;;;1.13;0.50;;;21.40;99.90;;;;;;5036869;28;20044;-74
2022/09/09 13:06:24;;;;;;;1.33;0.40;;;21.40;99.90;;;;;;5053298;28;20082;-73
2022/09/09 13:08:52;;;;;;;0.88;0.40;;;21.70;99.90;;;;;;5053573;28;20053;-73
2022/09/09 13:11:42;;;;;;;1.63;0.52;;;21.70;99.90;;;;;;5037225;28;20048;-74
2022/09/09 13:14:25;;;;;;;1.23;0.50;;;21.60;99.90;;;;;;5036913;28;20045;-73
2022/09/09 13:17:00;;;;;;;1.83;0.68;;;21.30;99.90;;;;;;5053635;28;20384;-73
2022/09/09 13:19:34;;;;;;;0.93;0.50;;;21.10;99.90;;;;;;5053428;28;20059;-73
2022/09/09 13:22:12;;;;;;;1.25;0.63;;;20.90;99.90;;;;;;5053584;28;20052;-73